createdAt,value
2018-09-22T00:00:21.976Z,86.43
2018-09-22T00:00:48.110Z,86.05
2018-09-22T00:01:14.262Z,86.34
2018-09-22T00:01:40.510Z,86.53
2018-09-22T00:02:06.715Z,86.43
2018-09-22T00:02:32.925Z,87.01
2018-09-22T00:02:59.084Z,86.82
2018-09-22T00:03:25.461Z,86.91
2018-09-22T00:03:51.811Z,86.82
2018-09-22T00:04:17.914Z,86.91
2018-09-22T00:04:44.144Z,87.01
2018-09-22T00:05:10.312Z,87.2
2018-09-22T00:05:36.441Z,86.53
2018-09-22T00:06:02.707Z,86.24
2018-09-22T00:06:28.841Z,86.43
2018-09-22T00:06:54.973Z,86.43
2018-09-22T00:07:21.118Z,86.53
2018-09-22T00:07:47.246Z,87.1
2018-09-22T00:08:13.393Z,87.2
2018-09-22T00:08:39.521Z,86.15
2018-09-22T00:09:06.173Z,86.24
2018-09-22T00:09:32.245Z,86.43
2018-09-22T00:09:58.739Z,87.1
2018-09-22T00:10:25.008Z,86.82
2018-09-22T00:10:51.418Z,87.39
2018-09-22T00:11:17.823Z,87.1
2018-09-22T00:11:43.935Z,87.39
2018-09-22T00:12:10.513Z,87.29
2018-09-22T00:12:36.756Z,87.29
2018-09-22T00:13:03.511Z,87.01
2018-09-22T00:13:29.887Z,87.29
2018-09-22T00:13:56.396Z,87.01
2018-09-22T00:14:22.488Z,87.39
2018-09-22T00:14:49.049Z,87.1
2018-09-22T00:15:15.917Z,87.01
2018-09-22T00:15:42.375Z,86.82
2018-09-22T00:16:09.156Z,87.39
2018-09-22T00:16:35.524Z,87.29
2018-09-22T00:17:01.950Z,87.2
2018-09-22T00:17:28.244Z,87.39
2018-09-22T00:17:54.803Z,86.91
2018-09-22T00:18:20.936Z,86.82
2018-09-22T00:18:47.067Z,86.63
2018-09-22T00:19:13.207Z,87.01
2018-09-22T00:19:39.363Z,86.72
2018-09-22T00:20:05.493Z,86.91
2018-09-22T00:20:31.638Z,87.1
2018-09-22T00:20:58.050Z,86.34
2018-09-22T00:21:24.188Z,86.34
2018-09-22T00:21:50.486Z,86.34
2018-09-22T00:22:17.002Z,86.15
2018-09-22T00:22:43.828Z,86.53
2018-09-22T00:23:10.008Z,86.53
2018-09-22T00:23:36.158Z,86.43
2018-09-22T00:24:02.289Z,86.24
2018-09-22T00:24:28.421Z,86.43
2018-09-22T00:24:54.554Z,86.53
2018-09-22T00:25:20.697Z,86.43
2018-09-22T00:25:46.848Z,87.2
2018-09-22T00:26:12.987Z,86.91
2018-09-22T00:26:39.117Z,87.1
2018-09-22T00:27:05.348Z,87.2
2018-09-22T00:27:31.567Z,87.1
2018-09-22T00:27:58.116Z,87.39
2018-09-22T00:28:24.539Z,87.1
2018-09-22T00:28:50.822Z,87.1
2018-09-22T00:29:16.961Z,86.24
2018-09-22T00:29:43.151Z,86.24
2018-09-22T00:30:09.286Z,86.24
2018-09-22T00:30:35.446Z,86.63
2018-09-22T00:31:01.579Z,86.24
2018-09-22T00:31:27.710Z,86.24
2018-09-22T00:31:53.841Z,86.63
2018-09-22T00:32:19.998Z,86.24
2018-09-22T00:32:46.128Z,86.43
2018-09-22T00:33:12.259Z,86.15
2018-09-22T00:33:38.392Z,86.43
2018-09-22T00:34:04.528Z,87.1
2018-09-22T00:34:30.667Z,86.91
2018-09-22T00:34:56.829Z,86.82
2018-09-22T00:35:22.960Z,86.91
2018-09-22T00:35:49.089Z,87.2
2018-09-22T00:36:15.244Z,87.29
2018-09-22T00:36:41.410Z,87.48
2018-09-22T00:37:07.540Z,87.48
2018-09-22T00:37:33.675Z,87.96
2018-09-22T00:37:59.831Z,87.29
2018-09-22T00:38:25.991Z,87.68
2018-09-22T00:38:52.119Z,87.01
2018-09-22T00:39:18.249Z,87.2
2018-09-22T00:39:44.379Z,87.77
2018-09-22T00:40:10.540Z,86.82
2018-09-22T00:40:36.740Z,87.29
2018-09-22T00:41:02.872Z,87.1
2018-09-22T00:41:29.029Z,87.2
2018-09-22T00:41:55.158Z,87.77
2018-09-22T00:42:21.292Z,87.48
2018-09-22T00:42:47.419Z,87.01
2018-09-22T00:43:13.551Z,87.48
2018-09-22T00:43:39.716Z,87.2
2018-09-22T00:44:05.848Z,87.2
2018-09-22T00:44:31.983Z,87.1
2018-09-22T00:44:58.117Z,87.29
2018-09-22T00:45:24.260Z,87.2
2018-09-22T00:45:50.388Z,86.91
2018-09-22T00:46:16.528Z,87.01
2018-09-22T00:46:42.655Z,87.1
2018-09-22T00:47:08.786Z,87.01
2018-09-22T00:47:34.944Z,87.01
2018-09-22T00:48:01.086Z,87.01
2018-09-22T00:48:27.287Z,87.2
2018-09-22T00:48:53.417Z,87.29
2018-09-22T00:49:19.550Z,87.29
2018-09-22T00:49:45.691Z,86.91
2018-09-22T00:50:11.822Z,86.34
2018-09-22T00:50:37.974Z,86.72
2018-09-22T00:51:04.124Z,87.01
2018-09-22T00:51:30.250Z,86.72
2018-09-22T00:51:56.389Z,87.1
2018-09-22T00:52:22.522Z,86.91
2018-09-22T00:52:48.651Z,87.29
2018-09-22T00:53:14.782Z,87.39
2018-09-22T00:53:40.946Z,87.2
2018-09-22T00:54:07.083Z,87.01
2018-09-22T00:54:33.218Z,87.01
2018-09-22T00:54:59.351Z,87.48
2018-09-22T00:55:25.496Z,87.2
2018-09-22T00:55:51.628Z,86.82
2018-09-22T00:56:17.761Z,88.15
2018-09-22T00:56:43.890Z,87.87
2018-09-22T00:57:10.033Z,87.77
2018-09-22T00:57:36.194Z,87.87
2018-09-22T00:58:02.347Z,87.96
2018-09-22T00:58:28.567Z,87.29
2018-09-22T00:58:54.639Z,87.77
2018-09-22T00:59:20.798Z,87.1
2018-09-22T00:59:46.945Z,87.77
2018-09-22T01:00:13.080Z,87.2
2018-09-22T01:00:39.230Z,87.82
2018-09-22T01:01:05.366Z,87.58
2018-09-22T01:01:31.504Z,87.87
2018-09-22T01:01:57.680Z,87.77
2018-09-22T01:02:23.839Z,88.06
2018-09-22T01:02:49.992Z,87.1
2018-09-22T01:03:16.116Z,87.29
2018-09-22T01:03:42.273Z,87.1
2018-09-22T01:04:08.401Z,87.68
2018-09-22T01:04:34.581Z,87.2
2018-09-22T01:05:00.714Z,87.48
2018-09-22T01:05:26.845Z,87.48
2018-09-22T01:05:52.974Z,87.1
2018-09-22T01:06:19.104Z,87.2
2018-09-22T01:06:45.238Z,87.2
2018-09-22T01:07:11.395Z,87.2
2018-09-22T01:07:37.550Z,87.48
2018-09-22T01:08:03.687Z,87.48
2018-09-22T01:08:29.818Z,87.58
2018-09-22T01:08:55.955Z,87.01
2018-09-22T01:09:22.090Z,87.29
2018-09-22T01:09:48.269Z,87.29
2018-09-22T01:10:14.400Z,87.29
2018-09-22T01:10:40.540Z,87.1
2018-09-22T01:11:06.666Z,87.29
2018-09-22T01:11:32.798Z,87.2
2018-09-22T01:11:58.939Z,87.2
2018-09-22T01:12:25.069Z,87.29
2018-09-22T01:12:51.200Z,87.87
2018-09-22T01:13:17.366Z,87.48
2018-09-22T01:13:43.522Z,87.2
2018-09-22T01:14:09.650Z,87.29
2018-09-22T01:14:35.792Z,87.01
2018-09-22T01:15:01.921Z,87.01
2018-09-22T01:15:28.073Z,87.39
2018-09-22T01:15:54.237Z,87.01
2018-09-22T01:16:20.351Z,87.1
2018-09-22T01:16:46.492Z,87.1
2018-09-22T01:17:12.624Z,86.91
2018-09-22T01:17:38.749Z,86.72
2018-09-22T01:18:04.886Z,86.82
2018-09-22T01:18:31.021Z,86.91
2018-09-22T01:18:57.175Z,87.01
2018-09-22T01:19:23.310Z,86.63
2018-09-22T01:19:49.437Z,86.72
2018-09-22T01:20:15.588Z,86.63
2018-09-22T01:20:41.744Z,86.24
2018-09-22T01:21:07.879Z,86.34
2018-09-22T01:21:34.019Z,86.63
2018-09-22T01:22:00.148Z,86.53
2018-09-22T01:22:26.282Z,86.34
2018-09-22T01:22:52.441Z,86.53
2018-09-22T01:23:18.573Z,86.34
2018-09-22T01:23:44.706Z,86.34
2018-09-22T01:24:10.837Z,86.91
2018-09-22T01:24:36.992Z,87.39
2018-09-22T01:25:03.120Z,86.63
2018-09-22T01:25:29.260Z,86.82
2018-09-22T01:25:55.393Z,87.29
2018-09-22T01:26:21.528Z,87.29
2018-09-22T01:26:47.661Z,86.82
2018-09-22T01:27:13.793Z,87.01
2018-09-22T01:27:39.967Z,86.91
2018-09-22T01:28:06.098Z,86.53
2018-09-22T01:28:32.254Z,87.01
2018-09-22T01:28:58.385Z,87.2
2018-09-22T01:29:24.516Z,87.29
2018-09-22T01:29:50.651Z,87.39
2018-09-22T01:30:16.810Z,87.01
2018-09-22T01:30:42.969Z,87.2
2018-09-22T01:31:09.163Z,86.82
2018-09-22T01:31:35.255Z,86.72
2018-09-22T01:32:01.385Z,87.01
2018-09-22T01:32:27.547Z,86.72
2018-09-22T01:32:53.683Z,86.43
2018-09-22T01:33:19.815Z,86.15
2018-09-22T01:33:45.952Z,86.43
2018-09-22T01:34:12.084Z,86.15
2018-09-22T01:34:38.216Z,86.34
2018-09-22T01:35:04.344Z,86.63
2018-09-22T01:35:30.476Z,86.43
2018-09-22T01:35:56.605Z,86.53
2018-09-22T01:36:22.768Z,86.43
2018-09-22T01:36:48.898Z,86.15
2018-09-22T01:37:15.054Z,86.24
2018-09-22T01:37:41.212Z,86.43
2018-09-22T01:38:07.342Z,86.63
2018-09-22T01:38:33.473Z,86.34
2018-09-22T01:38:59.603Z,86.63
2018-09-22T01:39:25.749Z,86.24
2018-09-22T01:39:51.877Z,85.96
2018-09-22T01:40:18.011Z,85.96
2018-09-22T01:40:44.142Z,85.96
2018-09-22T01:41:10.278Z,86.43
2018-09-22T01:41:36.419Z,86.43
2018-09-22T01:42:02.542Z,86.43
2018-09-22T01:42:28.675Z,86.34
2018-09-22T01:42:54.808Z,86.15
2018-09-22T01:43:20.967Z,86.53
2018-09-22T01:43:47.099Z,86.63
2018-09-22T01:44:13.234Z,86.53
2018-09-22T01:44:39.362Z,86.34
2018-09-22T01:45:05.497Z,86.53
2018-09-22T01:45:31.629Z,86.24
2018-09-22T01:45:57.775Z,86.34
2018-09-22T01:46:23.913Z,86.24
2018-09-22T01:46:50.038Z,86.34
2018-09-22T01:47:16.174Z,86.24
2018-09-22T01:47:42.306Z,86.34
2018-09-22T01:48:08.466Z,86.63
2018-09-22T01:48:34.617Z,86.72
2018-09-22T01:49:00.744Z,86.72
2018-09-22T01:49:26.880Z,86.82
2018-09-22T01:49:53.005Z,87.01
2018-09-22T01:50:19.146Z,86.34
2018-09-22T01:50:45.274Z,87.1
2018-09-22T01:51:11.434Z,87.01
2018-09-22T01:51:37.589Z,87.2
2018-09-22T01:52:03.725Z,87.48
2018-09-22T01:52:29.910Z,87.63
2018-09-22T01:52:56.038Z,87.58
2018-09-22T01:53:22.172Z,87.01
2018-09-22T01:53:48.329Z,87.1
2018-09-22T01:54:14.468Z,87.29
2018-09-22T01:54:40.619Z,87.2
2018-09-22T01:55:06.749Z,87.01
2018-09-22T01:55:32.884Z,87.01
2018-09-22T01:55:59.016Z,87.1
2018-09-22T01:56:25.151Z,87.2
2018-09-22T01:56:51.279Z,87.29
2018-09-22T01:57:17.701Z,87.58
2018-09-22T01:57:43.865Z,87.29
2018-09-22T01:58:09.990Z,87.29
2018-09-22T01:58:36.139Z,86.91
2018-09-22T01:59:02.273Z,87.87
2018-09-22T01:59:28.408Z,87.87
2018-09-22T01:59:54.557Z,87.96
2018-09-22T02:00:20.685Z,87.96
2018-09-22T02:00:46.826Z,87.82
2018-09-22T02:01:12.959Z,87.54
2018-09-22T02:01:39.114Z,88.01
2018-09-22T02:02:05.242Z,87.82
2018-09-22T02:02:31.381Z,87.68
2018-09-22T02:02:57.516Z,87.54
2018-09-22T02:03:23.648Z,88.25
2018-09-22T02:03:49.793Z,87.73
2018-09-22T02:04:15.930Z,87.54
2018-09-22T02:04:42.061Z,87.77
2018-09-22T02:05:08.216Z,87.68
2018-09-22T02:05:34.357Z,87.77
2018-09-22T02:06:00.503Z,87.68
2018-09-22T02:06:26.670Z,87.2
2018-09-22T02:06:52.786Z,87.77
2018-09-22T02:07:18.929Z,87.01
2018-09-22T02:07:45.057Z,86.96
2018-09-22T02:08:11.226Z,87.77
2018-09-22T02:08:37.360Z,87.68
2018-09-22T02:09:03.495Z,88.25
2018-09-22T02:09:29.654Z,87.39
2018-09-22T02:09:55.803Z,87.82
2018-09-22T02:10:21.940Z,87.2
2018-09-22T02:10:48.065Z,87.63
2018-09-22T02:11:14.203Z,87.68
2018-09-22T02:11:40.329Z,87.29
2018-09-22T02:12:06.468Z,86.91
2018-09-22T02:12:32.632Z,87.1
2018-09-22T02:12:58.791Z,87.29
2018-09-22T02:13:24.937Z,87.48
2018-09-22T02:13:51.071Z,86.63
2018-09-22T02:14:17.235Z,87.29
2018-09-22T02:14:43.362Z,87.1
2018-09-22T02:15:09.501Z,87.01
2018-09-22T02:15:35.652Z,87.58
2018-09-22T02:16:01.782Z,87.1
2018-09-22T02:16:27.916Z,87.77
2018-09-22T02:16:54.082Z,87.01
2018-09-22T02:17:20.229Z,87.58
2018-09-22T02:17:46.360Z,86.96
2018-09-22T02:18:12.493Z,87.15
2018-09-22T02:18:38.643Z,86.77
2018-09-22T02:19:04.776Z,86.77
2018-09-22T02:19:30.932Z,87.63
2018-09-22T02:19:57.092Z,88.01
2018-09-22T02:20:23.245Z,87.44
2018-09-22T02:20:49.393Z,87.82
2018-09-22T02:21:15.531Z,87.73
2018-09-22T02:21:41.694Z,87.73
2018-09-22T02:22:07.819Z,87.82
2018-09-22T02:22:33.957Z,87.82
2018-09-22T02:23:00.112Z,88.4
2018-09-22T02:23:26.248Z,88.11
2018-09-22T02:23:52.375Z,88.01
2018-09-22T02:24:18.548Z,88.49
2018-09-22T02:24:44.711Z,88.11
2018-09-22T02:25:10.892Z,88.2
2018-09-22T02:25:37.019Z,88.49
2018-09-22T02:26:03.152Z,88.11
2018-09-22T02:26:29.312Z,88.11
2018-09-22T02:26:55.445Z,88.2
2018-09-22T02:27:21.604Z,88.2
2018-09-22T02:27:47.737Z,88.11
2018-09-22T02:28:13.867Z,88.3
2018-09-22T02:28:39.997Z,88.59
2018-09-22T02:29:06.138Z,87.92
2018-09-22T02:29:32.298Z,88.2
2018-09-22T02:29:58.434Z,87.92
2018-09-22T02:30:24.612Z,87.44
2018-09-22T02:30:50.772Z,87.82
2018-09-22T02:31:16.902Z,87.73
2018-09-22T02:31:43.102Z,87.68
2018-09-22T02:32:09.230Z,87.82
2018-09-22T02:32:35.420Z,88.11
2018-09-22T02:33:01.577Z,87.82
2018-09-22T02:33:27.714Z,88.4
2018-09-22T02:33:53.836Z,88.11
2018-09-22T02:34:20.012Z,88.01
2018-09-22T02:34:46.179Z,88.3
2018-09-22T02:35:12.328Z,88.59
2018-09-22T02:35:38.552Z,88.2
2018-09-22T02:36:04.612Z,88.78
2018-09-22T02:36:30.745Z,88.87
2018-09-22T02:36:56.884Z,88.87
2018-09-22T02:37:23.066Z,88.97
2018-09-22T02:37:49.243Z,88.68
2018-09-22T02:38:15.370Z,89.06
2018-09-22T02:38:41.507Z,88.78
2018-09-22T02:39:07.689Z,88.87
2018-09-22T02:39:33.904Z,89.06
2018-09-22T02:40:00.098Z,88.97
2018-09-22T02:40:26.278Z,89.06
2018-09-22T02:40:52.429Z,88.59
2018-09-22T02:41:18.618Z,88.78
2018-09-22T02:41:44.821Z,88.87
2018-09-22T02:42:10.985Z,88.68
2018-09-22T02:42:37.145Z,88.68
2018-09-22T02:43:03.322Z,88.87
2018-09-22T02:43:29.483Z,88.87
2018-09-22T02:43:55.644Z,88.78
2018-09-22T02:44:21.845Z,88.87
2018-09-22T02:44:47.978Z,88.49
2018-09-22T02:45:14.107Z,88.87
2018-09-22T02:45:40.245Z,88.78
2018-09-22T02:46:06.400Z,88.68
2018-09-22T02:46:32.552Z,88.97
2018-09-22T02:46:58.710Z,88.78
2018-09-22T02:47:24.864Z,88.87
2018-09-22T02:47:51.040Z,88.2
2018-09-22T02:48:17.213Z,88.11
2018-09-22T02:48:43.394Z,88.87
2018-09-22T02:49:09.533Z,88.97
2018-09-22T02:49:35.663Z,88.01
2018-09-22T02:50:01.809Z,88.4
2018-09-22T02:50:27.934Z,88.59
2018-09-22T02:50:54.063Z,88.49
2018-09-22T02:51:20.217Z,88.68
2018-09-22T02:51:46.343Z,88.68
2018-09-22T02:52:12.475Z,88.49
2018-09-22T02:52:38.635Z,88.4
2018-09-22T02:53:04.786Z,88.49
2018-09-22T02:53:30.921Z,88.68
2018-09-22T02:53:57.096Z,88.49
2018-09-22T02:54:23.248Z,88.59
2018-09-22T02:54:49.431Z,88.2
2018-09-22T02:55:15.611Z,88.4
2018-09-22T02:55:41.743Z,88.78
2018-09-22T02:56:07.904Z,88.87
2018-09-22T02:56:34.051Z,88.97
2018-09-22T02:57:00.185Z,88.68
2018-09-22T02:57:26.320Z,89.06
2018-09-22T02:57:52.455Z,88.68
2018-09-22T02:58:18.589Z,89.16
2018-09-22T02:58:44.744Z,89.16
2018-09-22T02:59:10.876Z,88.97
2018-09-22T02:59:37.016Z,88.68
2018-09-22T03:00:03.192Z,88.97
2018-09-22T03:00:29.352Z,89.25
2018-09-22T03:00:55.509Z,88.87
2018-09-22T03:01:21.659Z,89.16
2018-09-22T03:01:47.794Z,89.35
2018-09-22T03:02:13.929Z,89.35
2018-09-22T03:02:40.086Z,89.45
2018-09-22T03:03:06.226Z,89.35
2018-09-22T03:03:32.384Z,89.73
2018-09-22T03:03:58.526Z,89.54
2018-09-22T03:04:24.708Z,89.45
2018-09-22T03:04:50.858Z,89.45
2018-09-22T03:05:17.041Z,89.35
2018-09-22T03:05:43.216Z,89.06
2018-09-22T03:06:09.378Z,89.54
2018-09-22T03:06:35.522Z,89.45
2018-09-22T03:07:01.647Z,89.73
2018-09-22T03:07:27.800Z,89.06
2018-09-22T03:07:53.933Z,89.54
2018-09-22T03:08:20.071Z,89.35
2018-09-22T03:08:46.315Z,89.45
2018-09-22T03:09:12.351Z,88.87
2018-09-22T03:09:38.529Z,88.97
2018-09-22T03:10:04.740Z,89.16
2018-09-22T03:10:30.825Z,89.16
2018-09-22T03:10:56.951Z,89.06
2018-09-22T03:11:23.085Z,88.97
2018-09-22T03:11:49.267Z,89.06
2018-09-22T03:12:15.398Z,89.16
2018-09-22T03:12:41.530Z,88.97
2018-09-22T03:13:07.681Z,89.45
2018-09-22T03:13:33.835Z,89.06
2018-09-22T03:13:59.971Z,89.83
2018-09-22T03:14:26.159Z,89.92
2018-09-22T03:14:52.290Z,90.02
2018-09-22T03:15:18.547Z,89.54
2018-09-22T03:15:44.629Z,89.73
2018-09-22T03:16:10.784Z,89.73
2018-09-22T03:16:36.917Z,90.02
2018-09-22T03:17:03.076Z,89.73
2018-09-22T03:17:29.245Z,89.64
2018-09-22T03:17:55.380Z,89.64
2018-09-22T03:18:21.511Z,89.45
2018-09-22T03:18:47.678Z,88.97
2018-09-22T03:19:13.796Z,89.25
2018-09-22T03:19:39.924Z,89.25
2018-09-22T03:20:06.078Z,89.92
2018-09-22T03:20:32.260Z,89.73
2018-09-22T03:20:58.443Z,89.64
2018-09-22T03:21:24.578Z,90.21
2018-09-22T03:21:50.709Z,90.02
2018-09-22T03:22:16.883Z,89.64
2018-09-22T03:22:43.009Z,89.92
2018-09-22T03:23:09.139Z,89.54
2018-09-22T03:23:35.273Z,89.64
2018-09-22T03:24:01.423Z,89.73
2018-09-22T03:24:27.599Z,89.73
2018-09-22T03:24:53.739Z,89.73
2018-09-22T03:25:19.896Z,90.02
2018-09-22T03:25:46.027Z,89.54
2018-09-22T03:26:12.160Z,89.35
2018-09-22T03:26:38.295Z,89.45
2018-09-22T03:27:04.452Z,89.25
2018-09-22T03:27:30.605Z,88.87
2018-09-22T03:27:56.745Z,88.87
2018-09-22T03:28:22.899Z,89.16
2018-09-22T03:28:49.059Z,88.97
2018-09-22T03:29:15.190Z,88.78
2018-09-22T03:29:41.373Z,88.97
2018-09-22T03:30:07.503Z,88.97
2018-09-22T03:30:33.682Z,88.68
2018-09-22T03:30:59.850Z,88.78
2018-09-22T03:31:26.133Z,88.97
2018-09-22T03:31:52.176Z,88.87
2018-09-22T03:32:18.316Z,88.68
2018-09-22T03:32:44.447Z,88.59
2018-09-22T03:33:10.575Z,89.64
2018-09-22T03:33:36.732Z,89.16
2018-09-22T03:34:02.869Z,89.54
2018-09-22T03:34:29.009Z,89.54
2018-09-22T03:34:55.137Z,89.54
2018-09-22T03:35:21.300Z,89.64
2018-09-22T03:35:47.477Z,89.25
2018-09-22T03:36:13.657Z,88.87
2018-09-22T03:36:39.793Z,88.87
2018-09-22T03:37:05.927Z,88.78
2018-09-22T03:37:32.055Z,88.78
2018-09-22T03:37:58.192Z,89.16
2018-09-22T03:38:24.327Z,88.59
2018-09-22T03:38:50.482Z,88.59
2018-09-22T03:39:16.613Z,88.78
2018-09-22T03:39:42.791Z,88.68
2018-09-22T03:40:08.953Z,88.68
2018-09-22T03:40:35.111Z,88.87
2018-09-22T03:41:01.232Z,88.78
2018-09-22T03:41:27.371Z,88.3
2018-09-22T03:41:53.527Z,88.59
2018-09-22T03:42:19.666Z,88.44
2018-09-22T03:42:45.794Z,88.44
2018-09-22T03:43:11.930Z,88.2
2018-09-22T03:43:38.062Z,87.87
2018-09-22T03:44:04.200Z,88.06
2018-09-22T03:44:30.375Z,88.25
2018-09-22T03:44:56.508Z,88.06
2018-09-22T03:45:22.691Z,88.15
2018-09-22T03:45:48.821Z,88.11
2018-09-22T03:46:14.983Z,87.82
2018-09-22T03:46:41.121Z,87.92
2018-09-22T03:47:07.275Z,87.82
2018-09-22T03:47:33.480Z,88.2
2018-09-22T03:47:59.642Z,88.4
2018-09-22T03:48:25.786Z,88.59
2018-09-22T03:48:51.913Z,88.59
2018-09-22T03:49:18.057Z,88.4
2018-09-22T03:49:44.201Z,88.4
2018-09-22T03:50:10.331Z,88.11
2018-09-22T03:50:36.495Z,87.73
2018-09-22T03:51:02.644Z,88.06
2018-09-22T03:51:28.776Z,88.01
2018-09-22T03:51:54.960Z,88.11
2018-09-22T03:52:21.089Z,88.3
2018-09-22T03:52:47.242Z,88.2
2018-09-22T03:53:13.391Z,88.2
2018-09-22T03:53:39.559Z,88.01
2018-09-22T03:54:05.696Z,88.3
2018-09-22T03:54:31.828Z,87.82
2018-09-22T03:54:57.985Z,88.59
2018-09-22T03:55:24.168Z,88.3
2018-09-22T03:55:50.339Z,88.49
2018-09-22T03:56:16.497Z,88.2
2018-09-22T03:56:42.629Z,88.78
2018-09-22T03:57:08.758Z,88.2
2018-09-22T03:57:34.925Z,88.78
2018-09-22T03:58:01.077Z,88.4
2018-09-22T03:58:27.236Z,88.87
2018-09-22T03:58:53.391Z,88.59
2018-09-22T03:59:19.523Z,88.78
2018-09-22T03:59:45.649Z,88.68
2018-09-22T04:00:11.781Z,88.87
2018-09-22T04:00:37.942Z,89.06
2018-09-22T04:01:04.076Z,88.97
2018-09-22T04:01:30.252Z,88.68
2018-09-22T04:01:56.380Z,89.25
2018-09-22T04:02:22.568Z,89.16
2018-09-22T04:02:48.699Z,89.16
2018-09-22T04:03:14.835Z,89.16
2018-09-22T04:03:40.987Z,88.87
2018-09-22T04:04:07.118Z,88.87
2018-09-22T04:04:33.251Z,89.06
2018-09-22T04:04:59.411Z,88.78
2018-09-22T04:05:25.539Z,88.68
2018-09-22T04:05:51.670Z,88.68
2018-09-22T04:06:17.857Z,88.87
2018-09-22T04:06:43.997Z,88.59
2018-09-22T04:07:10.154Z,88.68
2018-09-22T04:07:36.290Z,88.59
2018-09-22T04:08:02.439Z,88.49
2018-09-22T04:08:28.616Z,88.68
2018-09-22T04:08:54.758Z,88.49
2018-09-22T04:09:20.883Z,88.3
2018-09-22T04:09:47.017Z,88.4
2018-09-22T04:10:13.169Z,88.87
2018-09-22T04:10:39.303Z,88.78
2018-09-22T04:11:05.436Z,89.06
2018-09-22T04:11:31.616Z,88.97
2018-09-22T04:11:57.747Z,88.97
2018-09-22T04:12:23.905Z,89.25
2018-09-22T04:12:50.059Z,88.68
2018-09-22T04:13:16.263Z,88.97
2018-09-22T04:13:42.387Z,88.78
2018-09-22T04:14:08.540Z,89.06
2018-09-22T04:14:34.673Z,89.45
2018-09-22T04:15:00.808Z,89.64
2018-09-22T04:15:26.937Z,89.54
2018-09-22T04:15:53.092Z,89.35
2018-09-22T04:16:19.233Z,89.06
2018-09-22T04:16:45.408Z,89.25
2018-09-22T04:17:11.562Z,89.45
2018-09-22T04:17:37.712Z,89.45
2018-09-22T04:18:03.842Z,89.25
2018-09-22T04:18:30.022Z,88.78
2018-09-22T04:18:56.153Z,88.68
2018-09-22T04:19:22.302Z,88.87
2018-09-22T04:19:48.453Z,88.68
2018-09-22T04:20:14.603Z,88.97
2018-09-22T04:20:40.768Z,88.3
2018-09-22T04:21:06.896Z,88.49
2018-09-22T04:21:33.105Z,88.68
2018-09-22T04:21:59.271Z,88.4
2018-09-22T04:22:25.453Z,88.49
2018-09-22T04:22:51.613Z,88.4
2018-09-22T04:23:17.748Z,88.49
2018-09-22T04:23:43.882Z,88.49
2018-09-22T04:24:10.020Z,88.87
2018-09-22T04:24:36.150Z,88.59
2018-09-22T04:25:02.302Z,88.87
2018-09-22T04:25:28.438Z,88.87
2018-09-22T04:25:54.607Z,88.78
2018-09-22T04:26:20.737Z,88.78
2018-09-22T04:26:46.920Z,88.68
2018-09-22T04:27:13.057Z,88.78
2018-09-22T04:27:39.191Z,88.78
2018-09-22T04:28:05.322Z,88.3
2018-09-22T04:28:31.501Z,88.3
2018-09-22T04:28:57.638Z,88.4
2018-09-22T04:29:23.820Z,88.4
2018-09-22T04:29:49.968Z,88.3
2018-09-22T04:30:16.149Z,89.06
2018-09-22T04:30:42.302Z,88.87
2018-09-22T04:31:08.489Z,88.87
2018-09-22T04:31:34.631Z,88.78
2018-09-22T04:32:00.803Z,88.3
2018-09-22T04:32:26.953Z,88.49
2018-09-22T04:32:53.117Z,88.59
2018-09-22T04:33:19.303Z,88.4
2018-09-22T04:33:45.401Z,87.82
2018-09-22T04:34:11.565Z,87.82
2018-09-22T04:34:37.789Z,88.01
2018-09-22T04:35:03.921Z,87.92
2018-09-22T04:35:30.070Z,88.01
2018-09-22T04:35:56.201Z,88.49
2018-09-22T04:36:22.359Z,87.63
2018-09-22T04:36:48.525Z,88.11
2018-09-22T04:37:14.679Z,88.4
2018-09-22T04:37:40.832Z,88.01
2018-09-22T04:38:06.992Z,88.01
2018-09-22T04:38:33.124Z,88.3
2018-09-22T04:38:59.257Z,88.4
2018-09-22T04:39:25.415Z,88.49
2018-09-22T04:39:51.542Z,88.2
2018-09-22T04:40:17.697Z,88.01
2018-09-22T04:40:43.832Z,88.01
2018-09-22T04:41:09.977Z,88.2
2018-09-22T04:41:36.131Z,88.01
2018-09-22T04:42:02.293Z,88.4
2018-09-22T04:42:28.419Z,88.3
2018-09-22T04:42:54.553Z,88.11
2018-09-22T04:43:20.711Z,88.11
2018-09-22T04:43:46.842Z,87.63
2018-09-22T04:44:12.989Z,87.82
2018-09-22T04:44:39.135Z,87.82
2018-09-22T04:45:05.298Z,87.63
2018-09-22T04:45:31.462Z,88.2
2018-09-22T04:45:57.599Z,87.92
2018-09-22T04:46:23.754Z,87.54
2018-09-22T04:46:49.879Z,87.82
2018-09-22T04:47:16.036Z,87.92
2018-09-22T04:47:42.175Z,87.82
2018-09-22T04:48:08.335Z,87.82
2018-09-22T04:48:34.516Z,88.01
2018-09-22T04:49:00.646Z,87.92
2018-09-22T04:49:26.780Z,87.44
2018-09-22T04:49:52.936Z,87.35
2018-09-22T04:50:19.119Z,87.63
2018-09-22T04:50:45.242Z,87.63
2018-09-22T04:51:11.380Z,87.82
2018-09-22T04:51:37.525Z,88.4
2018-09-22T04:52:03.684Z,88.4
2018-09-22T04:52:29.840Z,89.16
2018-09-22T04:52:55.969Z,88.06
2018-09-22T04:53:22.123Z,87.82
2018-09-22T04:53:48.261Z,87.96
2018-09-22T04:54:14.385Z,88.54
2018-09-22T04:54:40.511Z,88.15
2018-09-22T04:55:06.677Z,87.96
2018-09-22T04:55:32.801Z,87.68
2018-09-22T04:55:58.938Z,86.72
2018-09-22T04:56:25.069Z,86.43
2018-09-22T04:56:51.225Z,86.91
2018-09-22T04:57:17.356Z,86.82
2018-09-22T04:57:43.495Z,86.91
2018-09-22T04:58:09.628Z,87.2
2018-09-22T04:58:35.763Z,86.82
2018-09-22T04:59:01.906Z,87.2
2018-09-22T04:59:28.031Z,86.24
2018-09-22T04:59:54.163Z,86.43
2018-09-22T05:00:20.293Z,86.34
2018-09-22T05:00:46.449Z,86.24
2018-09-22T05:01:12.588Z,86.24
2018-09-22T05:01:38.768Z,86.43
2018-09-22T05:02:04.893Z,86.24
2018-09-22T05:02:31.100Z,85.48
2018-09-22T05:02:57.229Z,85.67
2018-09-22T05:03:23.380Z,84.81
2018-09-22T05:03:49.532Z,85.1
2018-09-22T05:04:15.642Z,84.91
2018-09-22T05:04:41.823Z,85
2018-09-22T05:05:07.962Z,85.19
2018-09-22T05:05:34.091Z,85.1
2018-09-22T05:06:00.259Z,85.1
2018-09-22T05:06:26.370Z,85.1
2018-09-22T05:06:52.497Z,85.77
2018-09-22T05:07:18.655Z,85.29
2018-09-22T05:07:44.789Z,85.1
2018-09-22T05:08:10.918Z,85.1
2018-09-22T05:08:37.077Z,85.19
2018-09-22T05:09:03.226Z,85.29
2018-09-22T05:09:29.351Z,84.81
2018-09-22T05:09:55.483Z,84.81
2018-09-22T05:10:21.617Z,85.1
2018-09-22T05:10:47.775Z,85.19
2018-09-22T05:11:13.933Z,85.38
2018-09-22T05:11:40.057Z,85.19
2018-09-22T05:12:06.192Z,85.67
2018-09-22T05:12:32.351Z,85
2018-09-22T05:12:58.488Z,84.72
2018-09-22T05:13:24.625Z,84.23
2018-09-22T05:13:50.754Z,84.72
2018-09-22T05:14:16.884Z,84.47
2018-09-22T05:14:43.018Z,84.28
2018-09-22T05:15:09.151Z,84.47
2018-09-22T05:15:35.309Z,83.7
2018-09-22T05:16:01.439Z,83.99
2018-09-22T05:16:27.564Z,84.28
2018-09-22T05:16:53.750Z,83.61
2018-09-22T05:17:19.834Z,83.61
2018-09-22T05:17:45.971Z,83.51
2018-09-22T05:18:12.112Z,83.51
2018-09-22T05:18:38.255Z,83.7
2018-09-22T05:19:04.409Z,83.33
2018-09-22T05:19:30.539Z,83.8
2018-09-22T05:19:56.692Z,83.57
2018-09-22T05:20:22.832Z,83.95
2018-09-22T05:20:48.961Z,84.05
2018-09-22T05:21:15.095Z,84.14
2018-09-22T05:21:41.253Z,84.23
2018-09-22T05:22:07.386Z,84.23
2018-09-22T05:22:33.527Z,83.95
2018-09-22T05:22:59.658Z,83.86
2018-09-22T05:23:25.844Z,84.05
2018-09-22T05:23:51.977Z,84.19
2018-09-22T05:24:18.143Z,83.99
2018-09-22T05:24:44.344Z,84.23
2018-09-22T05:25:10.399Z,83.51
2018-09-22T05:25:36.532Z,84.09
2018-09-22T05:26:02.695Z,83.51
2018-09-22T05:26:28.831Z,83.57
2018-09-22T05:26:54.966Z,83.61
2018-09-22T05:27:21.096Z,83.99
2018-09-22T05:27:47.274Z,83.95
2018-09-22T05:28:13.433Z,83.9
2018-09-22T05:28:39.564Z,84.28
2018-09-22T05:29:05.699Z,83.7
2018-09-22T05:29:31.823Z,83.33
2018-09-22T05:29:57.980Z,83.04
2018-09-22T05:30:24.114Z,83.13
2018-09-22T05:30:50.256Z,83.33
2018-09-22T05:31:16.388Z,83.42
2018-09-22T05:31:42.519Z,83.42
2018-09-22T05:32:08.670Z,83.7
2018-09-22T05:32:34.807Z,83.38
2018-09-22T05:33:00.983Z,83.51
2018-09-22T05:33:27.175Z,83.04
2018-09-22T05:33:53.267Z,83.76
2018-09-22T05:34:19.432Z,83.57
2018-09-22T05:34:45.605Z,84.14
2018-09-22T05:35:11.742Z,84.23
2018-09-22T05:35:37.907Z,84.23
2018-09-22T05:36:04.038Z,83.67
2018-09-22T05:36:30.232Z,84.43
2018-09-22T05:36:56.354Z,84.14
2018-09-22T05:37:22.482Z,84.43
2018-09-22T05:37:48.654Z,84.43
2018-09-22T05:38:14.793Z,84.23
2018-09-22T05:38:40.919Z,84.33